Airfield :
LOGIN :

Register | Disclaimer

   EN    FR    IT 

 










Legend :    VFR   Marginal VFR   IFR   Intensive IFR   Very Intensive IFR
Visi :
Ceiling :
>= 8 km
>= 3000ft
5 to 8 km
1000 to 3000 ft
1500m to 5 km
500 to 1000 ft
800 to 1500m
200 to 500 ft
< 800m
< 200 ft
Symbols :   Thunderstorms  Fog  Heavy snow  Heavy precipitations  Wind > 20 kt
SIGMETs :     Misc.  Thunderstorms  Icing  Turbulence  Mountain Waves  Volcanic Ashes







- Airport Elevation : 238 ft
- IATA code : FAB
- Download approach charts


EGLF - Farnborough

CURRENT METAR :
  • 221420Z 07012KT 9999 FEW033 05/M02 Q1023

EXPIRED METARs :
  • 221350Z 07011KT 050V110 9999 FEW034 05/M02 Q1023
  • 221320Z 07011KT 040V110 9999 SCT032 05/M02 Q1023
  • 221250Z 06013KT 9999 BKN032 04/M03 Q1024
  • 221220Z 07012KT 9999 BKN030 04/M02 Q1024
  • 221150Z 07010KT 030V100 9000 BKN029 04/M02 Q1024

TAF TAF EGLF
Valid from the 22 at 15:00 until the 22 at 22:00 UTC


221357Z 2215/2222 07008KT 9999 SCT040
PROB30
TEMPO 2215/2222 8000
ATIS : +44 09063 800 400 (*282)
No reported NOTAMs for that airfield.



MET'MAP, your aeronautical weather chart ! - Copyright ORBIFLY December 2007 - Disclaimer

ORBIFLY MET'MAP TEAM :

Programming & Development : Alexandra Zaïnal
Concept & Development : Baudouin d'Aumeries
Co-Development & Prog : Marc-Olivier Méhu
Technical & hardware support : Manuel Goepfert

Contact : metmap@orbifly.com




SOURCES & CREDITS :

   NOAA